Earlton, New York
Current Conditions -  °F | °C
As of 9:51 AM on Friday 19 Dec 2014 (Local Time) from KALB Reporting Station
Overcast Overcast  
Wind Chill: 20°   Ceiling: 5500
Heat Index: 31°   Visibility: 10mi
Dew Point: 20°   Wind: 16mph
Humidity: 64%   Direction: 300°WNW
Pressure: 30.06"   Gusts: 23mph
Location:  42.36°N, 73.9°W
Report Text: KALB 191451Z 30014G20KT 10SM FEW022 SCT034 OVC055 M01/M07 A3006 RMK AO2 SLP184 T10061067 51020
Loading
Personal Weather Stations






























Interactive Weather Map New forecast layout! Learn more

10-Day Weather Forecast

Advertisements
Track Severe Weather on mobile